Terminal Aerodrome Forecast
Issued by NWS

Home | Current Version | Previous Version | Text Only | Print | Product List | Glossary On
Versions: 1 2 3 4 5 6 7 8 9 10 11 12
323
FTUS46 KHNX 062320
TAFBFL
TAF
KBFL 062320Z 0700/0724 30006KT P6SM VCSH SCT040 BKN070
     FM071200 VRB04KT P6SM SCT025 BKN050
     FM071800 30008KT P6SM SCT025 BKN050 PROB30 0718/0724 -TSRA
      BKN025CB=

USA.gov is the U.S. government's official web portal to all federal, state and local government web resources and services.